Terminal Aerodrome Forecast
Issued by NWS Rapid City, SD

Home | Current Version | Previous Version | Graphics & Text | Print | Product List | Glossary On
Versions: 1 2 3 4 5 6 7 8 9 10 11 12 13 14 15 16 17 18 19 20 21 22 23 24 25 26 27 28
000
FTUS43 KUNR 240628 AAA
TAFRAP
TAF AMD
KRAP 240628Z 2406/2506 34012KT 5SM -SHRA BR OVC005
     FM241300 34012KT P6SM OVC008
     FM242000 33011KT P6SM OVC015
      AMD NOT SKED=

USA.gov is the U.S. government's official web portal to all federal, state and local government web resources and services.